Time;durP1;ratioP1;P1;durP2;ratioP2;P2;SDS_P1;SDS_P2;PMS_P1;PMS_P2;Temp;Humidity;BMP_temperature;BMP_pressure;BME280_temperature;BME280_humidity;BME280_pressure;Samples;Min_cycle;Max_cycle;Signal;HPM_P1;HPM_P2
2021/05/25 00:02:18;;;;;;;1.50;1.40;;;;;;;8.13;100.00;97728.53;4999382;28;20612;-70
2021/05/25 00:04:46;;;;;;;2.17;1.23;;;;;;;8.18;100.00;97726.28;5003135;28;20586;-70
2021/05/25 00:07:14;;;;;;;1.20;1.20;;;;;;;8.17;100.00;97714.88;4999945;28;20227;-68
2021/05/25 00:09:42;;;;;;;1.37;1.27;;;;;;;8.23;100.00;97716.91;5002011;28;20675;-70
2021/05/25 00:12:09;;;;;;;1.10;1.10;;;;;;;8.14;100.00;97736.31;5002772;28;20239;-70
2021/05/25 00:14:38;;;;;;;1.33;1.30;;;;;;;8.03;100.00;97761.16;4994342;28;20240;-70
2021/05/25 00:17:05;;;;;;;1.60;1.50;;;;;;;8.00;100.00;97768.56;4998105;28;20304;-70
2021/05/25 00:19:33;;;;;;;1.27;1.17;;;;;;;8.03;100.00;97779.63;5001395;28;20312;-70
2021/05/25 00:22:01;;;;;;;2.37;1.60;;;;;;;8.07;100.00;97788.88;5003047;28;20232;-70
2021/05/25 00:24:28;;;;;;;3.13;1.47;;;;;;;8.03;100.00;97792.81;4997495;28;20228;-70
2021/05/25 00:26:56;;;;;;;1.47;1.37;;;;;;;8.02;100.00;97801.72;5002255;28;20581;-70
2021/05/25 00:29:24;;;;;;;4.47;1.43;;;;;;;8.09;100.00;97800.13;5000157;28;20261;-70
2021/05/25 00:31:53;;;;;;;1.23;1.23;;;;;;;8.05;100.00;97801.41;5001171;28;20201;-69
2021/05/25 00:34:21;;;;;;;3.60;1.10;;;;;;;7.96;100.00;97797.06;4998556;28;20528;-68
2021/05/25 00:36:51;;;;;;;2.63;1.70;;;;;;;8.09;100.00;97799.31;4998264;28;20217;-70
2021/05/25 00:39:19;;;;;;;1.23;1.10;;;;;;;8.05;100.00;97800.59;4997446;28;20213;-69
2021/05/25 00:41:48;;;;;;;1.17;1.17;;;;;;;8.05;100.00;97811.16;5000599;28;20357;-70
2021/05/25 00:44:15;;;;;;;1.10;1.10;;;;;;;8.08;100.00;97809.00;4995576;28;20331;-69
2021/05/25 00:46:43;;;;;;;1.70;1.20;;;;;;;8.00;100.00;97816.88;4999573;28;20787;-71
2021/05/25 00:49:12;;;;;;;1.33;1.27;;;;;;;7.94;100.00;97833.31;4999618;28;20237;-69
2021/05/25 00:51:39;;;;;;;1.30;1.20;;;;;;;7.94;100.00;97820.13;5000873;28;20724;-70
2021/05/25 00:54:07;;;;;;;1.40;1.30;;;;;;;8.00;100.00;97834.53;5000749;28;20228;-70
2021/05/25 00:56:34;;;;;;;1.37;1.30;;;;;;;7.94;100.00;97825.41;4999395;28;20205;-70
2021/05/25 00:59:02;;;;;;;0.90;0.90;;;;;;;7.99;100.00;97820.50;5001166;28;20232;-70
2021/05/25 01:01:30;;;;;;;2.03;1.37;;;;;;;8.00;100.00;97813.41;5000796;28;20675;-69
2021/05/25 01:03:58;;;;;;;1.10;1.10;;;;;;;7.93;100.00;97808.72;4999593;28;20696;-69
2021/05/25 01:06:27;;;;;;;2.43;1.73;;;;;;;7.95;100.00;97824.41;4998402;28;20209;-69
2021/05/25 01:08:57;;;;;;;1.67;1.33;;;;;;;7.88;100.00;97821.53;4996815;28;20670;-70
2021/05/25 01:11:24;;;;;;;1.80;1.47;;;;;;;7.91;100.00;97815.97;4994657;28;20245;-70
2021/05/25 01:13:54;;;;;;;1.20;1.10;;;;;;;7.84;100.00;97836.03;5001419;28;20347;-70
2021/05/25 01:16:23;;;;;;;1.20;1.10;;;;;;;7.86;100.00;97841.16;5002154;28;20296;-70
2021/05/25 01:18:51;;;;;;;1.10;1.10;;;;;;;7.85;100.00;97819.22;5002155;28;20205;-71
2021/05/25 01:21:19;;;;;;;0.90;0.90;;;;;;;8.00;100.00;97824.78;5001136;28;20299;-70
2021/05/25 01:23:48;;;;;;;0.90;0.90;;;;;;;7.87;100.00;97822.53;4995770;28;20236;-70
2021/05/25 01:26:17;;;;;;;1.20;1.10;;;;;;;7.78;100.00;97828.72;5002001;28;20226;-70
2021/05/25 01:28:45;;;;;;;0.70;0.70;;;;;;;7.85;100.00;97818.41;5003138;28;20554;-68
2021/05/25 01:31:14;;;;;;;1.50;0.80;;;;;;;7.76;100.00;97820.94;5003587;28;20219;-68
2021/05/25 01:33:43;;;;;;;2.10;1.40;;;;;;;7.81;100.00;97831.88;5005276;28;20769;-71
2021/05/25 01:36:13;;;;;;;1.10;1.00;;;;;;;7.88;100.00;97836.56;5002408;28;20206;-70
2021/05/25 01:38:43;;;;;;;1.17;1.07;;;;;;;7.88;100.00;97839.19;5002544;28;20202;-70
2021/05/25 01:41:12;;;;;;;1.43;1.30;;;;;;;7.85;100.00;97839.50;5002624;28;20724;-70
2021/05/25 01:43:39;;;;;;;1.00;1.00;;;;;;;7.85;100.00;97834.22;5000006;28;20251;-70
2021/05/25 01:46:07;;;;;;;0.97;0.97;;;;;;;7.88;100.00;97826.81;5004071;28;20208;-70
2021/05/25 01:48:35;;;;;;;1.07;1.07;;;;;;;7.88;100.00;97836.56;5001200;28;20685;-70
2021/05/25 01:51:03;;;;;;;1.10;1.10;;;;;;;7.85;100.00;97834.22;5004796;28;20213;-69
2021/05/25 01:53:31;;;;;;;1.03;1.03;;;;;;;7.81;100.00;97834.53;5004574;28;20239;-71
2021/05/25 01:55:59;;;;;;;1.40;1.23;;;;;;;7.86;100.00;97825.34;5004790;28;20209;-69
2021/05/25 01:58:32;;;;;;;1.33;1.10;;;;;;;7.84;100.00;97820.19;5004256;28;20308;-70
2021/05/25 02:01:01;;;;;;;1.00;1.00;;;;;;;7.74;100.00;97817.63;5001486;28;20268;-67
2021/05/25 02:03:29;;;;;;;2.37;1.53;;;;;;;7.79;100.00;97812.75;5000722;28;20245;-70
2021/05/25 02:05:57;;;;;;;1.50;1.27;;;;;;;7.67;100.00;97817.41;5002391;28;20629;-69
2021/05/25 02:08:25;;;;;;;1.40;1.40;;;;;;;7.62;100.00;97809.13;4999619;28;20219;-70
2021/05/25 02:10:54;;;;;;;1.57;1.00;;;;;;;7.72;100.00;97829.31;5003589;28;20243;-70
2021/05/25 02:13:24;;;;;;;1.37;1.27;;;;;;;7.76;100.00;97828.03;5004190;28;20232;-70
2021/05/25 02:15:54;;;;;;;2.00;1.30;;;;;;;7.67;100.00;97833.25;5003223;28;20562;-69
2021/05/25 02:18:23;;;;;;;1.40;1.20;;;;;;;7.64;100.00;97835.34;4999677;28;20219;-70
2021/05/25 02:20:53;;;;;;;1.70;1.23;;;;;;;7.58;100.00;97830.66;5004872;28;20205;-70
2021/05/25 02:23:21;;;;;;;1.67;1.30;;;;;;;7.65;100.00;97832.56;5002851;28;20633;-70
2021/05/25 02:25:49;;;;;;;0.90;0.90;;;;;;;7.50;100.00;97824.31;5000838;28;20205;-70
2021/05/25 02:28:17;;;;;;;1.30;1.30;;;;;;;7.45;100.00;97821.31;5000508;28;20239;-70
2021/05/25 02:30:46;;;;;;;1.50;1.40;;;;;;;7.45;100.00;97821.31;5004183;28;20361;-69
2021/05/25 02:33:16;;;;;;;1.30;1.20;;;;;;;7.41;100.00;97837.56;5004290;28;20760;-68
2021/05/25 02:35:45;;;;;;;2.67;1.37;;;;;;;7.53;100.00;97837.22;4998476;28;20284;-70
2021/05/25 02:38:13;;;;;;;1.03;1.03;;;;;;;7.50;100.00;97836.66;5000966;28;20689;-67
2021/05/25 02:40:41;;;;;;;1.33;1.30;;;;;;;7.42;100.00;97836.59;4999624;28;20232;-68
2021/05/25 02:43:09;;;;;;;1.07;0.90;;;;;;;7.58;100.00;97846.47;5001782;28;20232;-67
2021/05/25 02:45:37;;;;;;;1.33;1.23;;;;;;;7.46;100.00;97851.97;5000698;28;20201;-68
2021/05/25 02:48:06;;;;;;;1.07;0.97;;;;;;;7.43;100.00;97868.09;4998332;28;20219;-68
2021/05/25 02:50:35;;;;;;;1.30;1.30;;;;;;;7.37;100.00;97866.84;5002579;28;20427;-69
2021/05/25 02:53:05;;;;;;;1.60;1.30;;;;;;;7.36;100.00;97867.84;5003937;28;20315;-70
2021/05/25 02:55:35;;;;;;;1.70;1.27;;;;;;;7.26;100.00;97871.50;4999047;28;20197;-70
2021/05/25 02:58:04;;;;;;;0.90;0.90;;;;;;;7.31;100.00;97877.16;4997737;28;20205;-69
2021/05/25 03:00:33;;;;;;;2.57;1.60;;;;;;;7.25;100.00;97873.31;4998605;28;20221;-70
2021/05/25 03:03:01;;;;;;;1.70;0.90;;;;;;;7.29;100.00;97876.47;4996258;28;20713;-70
2021/05/25 03:05:28;;;;;;;1.13;1.13;;;;;;;7.14;100.00;97876.94;4998207;28;20209;-69
2021/05/25 03:07:59;;;;;;;1.47;0.93;;;;;;;7.11;100.00;97877.25;4997216;28;20217;-70
2021/05/25 03:10:29;;;;;;;1.27;1.23;;;;;;;7.20;100.00;97879.00;4999704;28;20579;-69
2021/05/25 03:12:57;;;;;;;1.17;1.10;;;;;;;7.01;100.00;97873.78;4997956;28;20736;-70
2021/05/25 03:15:28;;;;;;;1.50;1.50;;;;;;;6.99;100.00;97887.13;5001173;28;20225;-70
2021/05/25 03:17:55;;;;;;;1.90;1.53;;;;;;;7.00;100.00;97899.31;5002995;28;20232;-70
2021/05/25 03:20:23;;;;;;;1.70;1.37;;;;;;;6.90;100.00;97898.53;5003295;28;20227;-70
2021/05/25 03:22:51;;;;;;;1.30;1.20;;;;;;;6.91;100.00;97902.81;5003421;28;20220;-70
2021/05/25 03:25:20;;;;;;;2.13;1.50;;;;;;;6.83;100.00;97894.81;5000368;28;20667;-70
2021/05/25 03:27:48;;;;;;;0.93;0.93;;;;;;;6.78;100.00;97892.59;4999707;28;20757;-70
2021/05/25 03:30:18;;;;;;;2.13;1.60;;;;;;;6.81;100.00;97887.03;4999806;28;20209;-70
2021/05/25 03:32:46;;;;;;;1.50;1.40;;;;;;;6.81;100.00;97887.84;5002963;28;20232;-70
2021/05/25 03:35:16;;;;;;;3.33;1.63;;;;;;;6.75;100.00;97879.72;5000201;28;20213;-68
2021/05/25 03:37:44;;;;;;;1.03;1.03;;;;;;;6.76;100.00;97884.00;5000879;28;20653;-70
2021/05/25 03:40:13;;;;;;;1.47;1.37;;;;;;;6.69;100.00;97888.19;5001747;28;20213;-68
2021/05/25 03:42:45;;;;;;;1.27;1.17;;;;;;;6.65;100.00;97900.78;5000373;28;20490;-70
2021/05/25 03:45:13;;;;;;;1.70;1.30;;;;;;;6.71;100.00;97908.13;5001379;28;20344;-68
2021/05/25 03:47:41;;;;;;;3.33;1.40;;;;;;;6.63;100.00;97903.59;4999182;28;20586;-70
2021/05/25 03:50:10;;;;;;;1.50;1.40;;;;;;;6.68;100.00;97902.31;4998729;28;20215;-70
2021/05/25 03:52:40;;;;;;;1.53;1.20;;;;;;;6.57;100.00;97905.94;5002038;28;20228;-71
2021/05/25 03:55:14;;;;;;;1.00;1.00;;;;;;;6.61;100.00;97907.31;5000957;28;20271;-70
2021/05/25 04:00:28;;;;;;;1.30;1.20;;;;;;;6.60;100.00;97909.09;5001316;28;20216;-71
2021/05/25 04:02:56;;;;;;;1.27;1.17;;;;;;;6.55;100.00;97913.97;4998176;28;20256;-71
2021/05/25 04:05:23;;;;;;;1.10;1.00;;;;;;;6.47;100.00;97914.69;4998823;28;20229;-72
2021/05/25 04:07:51;;;;;;;1.63;1.27;;;;;;;6.49;100.00;97914.53;4998653;28;20502;-72
2021/05/25 04:10:19;;;;;;;2.27;1.53;;;;;;;6.51;100.00;97923.97;5000034;28;20677;-72
2021/05/25 04:12:46;;;;;;;1.47;1.40;;;;;;;6.61;100.00;97925.75;5000483;28;20221;-72
2021/05/25 04:15:15;;;;;;;4.97;1.70;;;;;;;6.45;100.00;97923.69;4995412;28;20334;-70
2021/05/25 04:17:43;;;;;;;1.10;1.10;;;;;;;6.53;100.00;97923.81;5001534;28;20240;-72
2021/05/25 04:20:12;;;;;;;1.93;1.17;;;;;;;6.57;100.00;97929.63;5002187;28;20213;-72
2021/05/25 04:22:40;;;;;;;1.63;1.30;;;;;;;6.57;100.00;97935.72;4999634;28;20224;-72
2021/05/25 04:25:08;;;;;;;2.23;1.17;;;;;;;6.59;100.00;97932.97;5000412;28;20232;-72
2021/05/25 04:27:36;;;;;;;2.40;1.33;;;;;;;6.63;100.00;97923.81;5000730;28;20223;-72
2021/05/25 04:30:07;;;;;;;2.10;1.60;;;;;;;6.76;100.00;97932.22;5000689;28;20205;-72
2021/05/25 04:32:36;;;;;;;1.53;1.40;;;;;;;6.71;100.00;97923.13;4999502;28;20264;-71
2021/05/25 04:35:06;;;;;;;2.47;1.60;;;;;;;6.79;100.00;97923.22;4995894;28;20232;-72
2021/05/25 04:37:34;;;;;;;1.30;1.20;;;;;;;6.82;100.00;97920.31;5002460;28;20635;-72
2021/05/25 04:40:03;;;;;;;2.97;1.27;;;;;;;6.85;100.00;97919.22;4996862;28;20697;-70
2021/05/25 04:42:35;;;;;;;0.93;0.93;;;;;;;7.05;100.00;97920.81;4995561;28;20256;-72
2021/05/25 04:45:05;;;;;;;1.40;1.20;;;;;;;7.05;100.00;97914.72;4999500;28;20578;-72
2021/05/25 04:47:33;;;;;;;1.70;1.47;;;;;;;7.15;100.00;97920.78;5001666;28;20211;-73
2021/05/25 04:50:01;;;;;;;1.53;1.40;;;;;;;7.22;98.60;97919.22;5002181;28;20259;-72
2021/05/25 04:52:29;;;;;;;1.37;1.27;;;;;;;7.24;99.61;97930.44;5001119;28;20343;-72
2021/05/25 04:54:57;;;;;;;1.40;1.17;;;;;;;7.37;97.91;97932.75;5001197;28;20216;-71
2021/05/25 04:57:25;;;;;;;1.37;1.27;;;;;;;7.49;97.87;97932.56;4999296;28;20268;-72
2021/05/25 04:59:53;;;;;;;1.73;1.33;;;;;;;7.61;97.94;97941.13;4996783;28;20210;-72
2021/05/25 05:02:20;;;;;;;1.83;1.73;;;;;;;7.68;98.03;97947.47;5003887;28;20241;-71
2021/05/25 05:04:48;;;;;;;1.10;1.00;;;;;;;7.71;95.77;97947.19;5005090;28;20225;-70
2021/05/25 05:07:16;;;;;;;2.43;1.30;;;;;;;7.69;95.79;97946.50;5001248;28;20213;-69
2021/05/25 05:09:44;;;;;;;2.60;1.23;;;;;;;7.76;95.02;97952.03;5004755;28;20220;-70
2021/05/25 05:12:12;;;;;;;1.00;1.00;;;;;;;7.86;94.29;97949.34;5001983;28;20224;-67
2021/05/25 05:14:40;;;;;;;1.40;1.30;;;;;;;7.90;93.87;97948.88;5003696;28;20740;-70
2021/05/25 05:17:07;;;;;;;1.43;1.30;;;;;;;8.05;92.00;97948.38;5002926;28;20200;-70
2021/05/25 05:19:35;;;;;;;2.70;1.50;;;;;;;8.23;91.79;97953.69;5001021;28;20204;-70
2021/05/25 05:22:03;;;;;;;1.03;1.03;;;;;;;8.29;88.91;97955.72;5005727;28;20536;-70
2021/05/25 05:24:31;;;;;;;1.47;1.37;;;;;;;8.24;87.49;97950.06;5003754;28;20866;-70
2021/05/25 05:26:59;;;;;;;1.20;1.20;;;;;;;8.38;87.17;97952.16;4999368;28;20219;-70
2021/05/25 05:29:27;;;;;;;1.07;1.07;;;;;;;8.27;87.06;97955.03;5003691;28;20648;-69
2021/05/25 05:31:55;;;;;;;1.90;1.33;;;;;;;8.39;85.51;97956.47;5003366;28;20300;-69
2021/05/25 05:34:22;;;;;;;1.60;1.27;;;;;;;8.37;85.26;97958.44;5003250;28;20562;-70
2021/05/25 05:36:50;;;;;;;1.30;1.20;;;;;;;8.47;83.29;97960.16;5002202;28;20213;-67
2021/05/25 05:39:17;;;;;;;2.73;1.47;;;;;;;8.61;83.29;97962.31;5002143;28;20217;-69
2021/05/25 05:41:45;;;;;;;1.13;1.00;;;;;;;8.77;82.57;97953.69;5003990;28;20692;-69
2021/05/25 05:44:14;;;;;;;2.60;1.00;;;;;;;8.86;80.74;97965.13;5001244;28;20232;-68
2021/05/25 05:46:41;;;;;;;1.40;1.30;;;;;;;8.76;77.49;97953.84;5005478;28;20297;-68
2021/05/25 05:49:09;;;;;;;0.83;0.83;;;;;;;9.00;78.83;97960.28;5003137;28;20307;-69
2021/05/25 05:51:37;;;;;;;0.97;0.73;;;;;;;9.28;77.07;97968.88;5002316;28;20212;-69
2021/05/25 05:54:05;;;;;;;2.20;0.87;;;;;;;9.32;75.94;97964.94;5003959;28;20636;-69
2021/05/25 05:56:33;;;;;;;0.80;0.80;;;;;;;9.27;76.99;97969.88;5002128;28;20213;-69
2021/05/25 05:59:00;;;;;;;1.67;1.30;;;;;;;9.24;73.84;97975.47;5004674;28;20229;-69
2021/05/25 06:01:29;;;;;;;2.83;1.40;;;;;;;9.09;74.32;97970.78;5004754;28;20285;-69
2021/05/25 06:03:56;;;;;;;1.20;1.10;;;;;;;9.24;73.87;97962.25;5003522;28;20233;-69
2021/05/25 06:06:23;;;;;;;1.10;0.90;;;;;;;9.16;73.62;97968.31;5004194;28;20209;-69
2021/05/25 06:08:51;;;;;;;4.43;1.27;;;;;;;8.98;73.68;97971.84;5003272;28;20227;-71
2021/05/25 06:11:18;;;;;;;0.93;0.87;;;;;;;8.96;73.72;97978.25;4999503;28;20508;-72
2021/05/25 06:13:46;;;;;;;1.23;1.20;;;;;;;8.98;73.55;97974.50;5000611;28;20247;-70
2021/05/25 06:16:13;;;;;;;4.67;1.00;;;;;;;8.98;72.38;97961.28;5001549;28;20209;-70
2021/05/25 06:18:42;;;;;;;1.30;1.20;;;;;;;9.10;73.70;97975.06;5001121;28;20208;-71
2021/05/25 06:21:09;;;;;;;1.53;1.33;;;;;;;8.99;73.51;97983.25;5003272;28;20269;-71
2021/05/25 06:23:37;;;;;;;1.40;1.00;;;;;;;8.96;73.33;97981.75;5000973;28;20240;-72
2021/05/25 06:26:05;;;;;;;4.00;1.83;;;;;;;9.19;72.60;97985.69;5001153;28;20708;-71
2021/05/25 06:28:33;;;;;;;1.63;1.50;;;;;;;9.52;74.47;97984.06;5004594;28;20223;-71
2021/05/25 06:31:01;;;;;;;1.47;0.90;;;;;;;9.58;69.74;97989.72;5003626;28;20205;-72
2021/05/25 06:33:28;;;;;;;2.10;1.17;;;;;;;9.59;70.94;97991.38;5000550;28;20221;-72
2021/05/25 06:35:56;;;;;;;1.67;0.90;;;;;;;9.69;69.50;97992.09;5004410;28;20212;-72
2021/05/25 06:38:25;;;;;;;1.80;1.17;;;;;;;9.61;71.18;97986.75;4999572;28;20280;-72
2021/05/25 06:40:53;;;;;;;2.03;1.93;;;;;;;9.77;69.56;97989.47;4998032;28;20685;-72
2021/05/25 06:43:20;;;;;;;1.80;1.00;;;;;;;9.75;66.31;97987.97;5000892;28;20224;-71
2021/05/25 06:45:48;;;;;;;2.50;1.13;;;;;;;9.94;67.24;97993.03;5003937;28;20471;-72
2021/05/25 06:48:15;;;;;;;2.90;1.00;;;;;;;10.09;66.24;97987.94;5001259;28;20205;-71
2021/05/25 06:50:43;;;;;;;1.43;1.00;;;;;;;9.99;66.06;98000.47;5003543;28;20406;-72
2021/05/25 06:53:12;;;;;;;1.43;1.10;;;;;;;10.15;67.26;97991.75;5000255;28;20235;-72
2021/05/25 06:55:39;;;;;;;1.33;1.00;;;;;;;10.08;66.00;97986.28;5001010;28;20685;-72
2021/05/25 06:58:07;;;;;;;1.20;1.10;;;;;;;10.09;65.52;97987.09;5004209;28;20738;-72
2021/05/25 07:00:35;;;;;;;1.67;0.60;;;;;;;10.15;64.68;97994.41;5002218;28;20240;-72
2021/05/25 07:03:03;;;;;;;2.20;0.90;;;;;;;9.95;65.75;98001.78;5001506;28;20231;-70
2021/05/25 07:05:31;;;;;;;0.60;0.60;;;;;;;10.00;62.74;97991.53;4999423;28;20291;-72
2021/05/25 07:07:58;;;;;;;2.00;1.00;;;;;;;9.86;62.80;97987.72;5000915;28;20205;-72
2021/05/25 07:10:27;;;;;;;1.43;1.00;;;;;;;10.17;61.92;98003.00;4994753;28;20240;-72
2021/05/25 07:12:55;;;;;;;0.60;0.57;;;;;;;9.94;62.27;97989.53;4999647;28;20221;-72
2021/05/25 07:15:22;;;;;;;1.57;0.80;;;;;;;10.19;64.12;97994.91;4999230;28;20205;-73
2021/05/25 07:17:56;;;;;;;0.40;0.40;;;;;;;10.42;62.94;97989.88;4999189;28;20296;-73
2021/05/25 07:20:23;;;;;;;2.27;0.60;;;;;;;10.38;59.71;97999.09;5000865;28;20208;-72
2021/05/25 07:22:53;;;;;;;0.63;0.63;;;;;;;10.11;58.17;98004.50;5002419;28;20260;-73
2021/05/25 07:25:22;;;;;;;1.83;0.97;;;;;;;10.23;58.76;98010.34;4995708;28;20236;-71
2021/05/25 07:27:50;;;;;;;1.43;0.90;;;;;;;10.33;60.60;98009.34;5002898;28;20228;-73
2021/05/25 07:30:19;;;;;;;0.80;0.80;;;;;;;10.70;60.79;98003.63;5000170;28;20582;-73
2021/05/25 07:32:46;;;;;;;0.77;0.77;;;;;;;10.46;60.09;98003.63;5002312;28;20612;-72
2021/05/25 07:35:14;;;;;;;0.87;0.80;;;;;;;9.99;61.15;98029.59;4997162;28;20713;-71
2021/05/25 07:37:42;;;;;;;1.73;0.90;;;;;;;9.59;62.07;98053.06;5003150;28;20220;-73
2021/05/25 07:40:12;;;;;;;0.50;0.50;;;;;;;9.58;62.71;98010.88;5001832;28;20197;-73
2021/05/25 07:42:39;;;;;;;1.07;0.97;;;;;;;9.56;63.61;98018.97;5003237;28;20224;-73
2021/05/25 07:45:09;;;;;;;14.40;9.53;;;;;;;9.78;64.69;98020.25;4999299;28;20235;-73
2021/05/25 07:47:36;;;;;;;2.83;1.57;;;;;;;9.81;62.57;98014.63;5000829;28;20336;-73
2021/05/25 07:50:13;;;;;;;11.47;10.57;;;;;;;10.19;61.60;98008.16;5000400;28;20296;-73
2021/05/25 07:52:42;;;;;;;4.13;3.83;;;;;;;10.60;60.37;98012.72;5002609;28;20224;-73
2021/05/25 07:55:13;;;;;;;2.77;1.07;;;;;;;10.71;58.09;98013.25;5001921;28;20292;-70
2021/05/25 07:57:40;;;;;;;3.13;2.93;;;;;;;10.85;58.02;98024.22;4997848;28;20209;-73
2021/05/25 08:00:12;;;;;;;0.70;0.70;;;;;;;10.59;57.96;98034.91;5002644;28;20656;-72
2021/05/25 08:02:40;;;;;;;1.47;1.10;;;;;;;10.42;57.45;98046.34;4999173;28;20225;-73
2021/05/25 08:05:08;;;;;;;3.30;1.20;;;;;;;10.37;59.02;98045.94;4994572;28;20602;-72
2021/05/25 08:07:36;;;;;;;2.13;1.27;;;;;;;10.03;59.04;98072.47;4999399;28;20205;-73
2021/05/25 08:10:06;;;;;;;2.00;1.87;;;;;;;10.40;55.63;98043.00;4999398;28;20227;-73
2021/05/25 08:12:33;;;;;;;0.77;0.73;;;;;;;10.63;55.46;98052.19;5001953;28;20622;-70
2021/05/25 08:15:03;;;;;;;1.00;0.90;;;;;;;10.26;53.29;98040.94;5000331;28;20212;-73
2021/05/25 08:17:45;;;;;;;1.57;1.20;;;;;;;10.73;54.94;98047.56;5001784;28;20316;-73
2021/05/25 08:20:16;;;;;;;3.37;3.10;;;;;;;10.83;53.97;98058.00;5001002;28;20209;-70
2021/05/25 08:23:06;;;;;;;1.40;1.00;;;;;;;10.65;54.63;98039.59;4997945;28;20236;-72
2021/05/25 08:25:34;;;;;;;1.10;0.90;;;;;;;10.93;53.46;98040.13;5001654;28;20220;-72
2021/05/25 08:28:02;;;;;;;0.80;0.80;;;;;;;10.86;53.75;98052.38;4999470;28;20218;-73
2021/05/25 08:30:32;;;;;;;1.20;1.10;;;;;;;10.71;52.08;98033.63;4996724;28;20216;-73
2021/05/25 08:33:02;;;;;;;1.20;1.10;;;;;;;10.90;53.01;98036.94;4997271;28;20715;-72
2021/05/25 08:35:35;;;;;;;1.10;1.10;;;;;;;10.98;52.08;98044.91;5001160;28;20212;-72
2021/05/25 08:38:04;;;;;;;1.33;0.60;;;;;;;10.88;52.44;98042.44;5006272;28;20243;-73
2021/05/25 08:40:33;;;;;;;2.50;0.90;;;;;;;10.86;53.33;98049.72;5003552;28;20468;-73
2021/05/25 08:43:01;;;;;;;1.50;0.83;;;;;;;11.09;53.33;98041.09;5005768;28;20316;-73
2021/05/25 08:45:29;;;;;;;1.43;0.93;;;;;;;11.03;52.22;98055.88;4999834;28;20232;-72
2021/05/25 08:47:57;;;;;;;0.93;0.90;;;;;;;11.31;52.61;98030.81;5000511;28;20217;-73
2021/05/25 08:50:45;;;;;;;1.27;1.17;;;;;;;11.56;51.97;98045.72;5005922;28;20209;-73
2021/05/25 08:53:13;;;;;;;1.10;1.10;;;;;;;11.64;50.96;98031.56;5005296;28;20418;-69
2021/05/25 08:55:43;;;;;;;0.70;0.70;;;;;;;11.73;51.32;98024.41;5006280;28;20582;-73
2021/05/25 08:58:10;;;;;;;0.50;0.50;;;;;;;11.72;51.09;98028.06;5002891;28;20563;-72
2021/05/25 09:00:37;;;;;;;1.53;0.80;;;;;;;12.07;50.02;98033.97;5004239;28;20641;-70
2021/05/25 09:03:05;;;;;;;0.60;0.60;;;;;;;11.87;50.76;98026.34;5004245;28;20232;-72
2021/05/25 09:05:34;;;;;;;1.10;0.77;;;;;;;11.47;52.40;98036.09;5001780;28;20597;-73
2021/05/25 09:08:02;;;;;;;1.27;0.83;;;;;;;11.41;52.19;98037.59;5002337;28;20215;-72
2021/05/25 09:10:37;;;;;;;0.50;0.50;;;;;;;10.94;54.27;98051.53;5002090;28;20411;-72
2021/05/25 09:13:05;;;;;;;1.03;1.03;;;;;;;10.77;55.23;98061.28;5003962;28;20224;-71
2021/05/25 09:15:34;;;;;;;1.07;0.90;;;;;;;10.45;57.65;98089.41;5003236;28;20251;-72
2021/05/25 09:18:03;;;;;;;0.60;0.60;;;;;;;9.92;64.28;98078.88;5001679;28;20209;-72
2021/05/25 09:20:39;;;;;;;1.63;0.80;;;;;;;9.98;67.30;98065.00;5003560;28;20697;-71
2021/05/25 09:23:07;;;;;;;1.03;1.03;;;;;;;10.00;65.91;98060.38;5002004;28;20232;-72
2021/05/25 09:25:35;;;;;;;7.03;5.63;;;;;;;10.02;66.11;98061.03;5003388;28;20403;-70
2021/05/25 09:28:07;;;;;;;7.67;5.53;;;;;;;10.48;65.46;98058.09;5002314;28;20853;-70
2021/05/25 09:30:35;;;;;;;2.77;2.23;;;;;;;11.18;62.57;98050.72;5000092;28;20201;-69
2021/05/25 09:33:05;;;;;;;0.70;0.70;;;;;;;11.79;55.39;98055.59;5003449;28;20582;-70
2021/05/25 09:35:33;;;;;;;0.50;0.50;;;;;;;11.83;54.21;98053.44;5001427;28;20205;-70
2021/05/25 09:38:08;;;;;;;3.07;2.57;;;;;;;11.43;54.85;98051.53;5002632;28;20209;-73
2021/05/25 09:40:36;;;;;;;2.10;1.47;;;;;;;11.50;54.45;98080.84;4995733;28;20570;-73
2021/05/25 09:43:13;;;;;;;1.63;1.10;;;;;;;11.65;55.05;98056.31;4998395;28;20232;-73
2021/05/25 09:45:57;;;;;;;1.30;0.53;;;;;;;12.04;56.19;98070.66;5000922;28;20701;-72
2021/05/25 09:48:27;;;;;;;1.37;0.90;;;;;;;12.00;54.46;98057.72;4996841;28;20586;-72
2021/05/25 09:50:55;;;;;;;1.43;1.33;;;;;;;11.86;52.97;98071.69;5004506;28;20212;-73
2021/05/25 09:53:25;;;;;;;1.57;0.93;;;;;;;11.57;53.40;98084.53;5004231;28;20512;-73
2021/05/25 09:55:54;;;;;;;1.07;1.07;;;;;;;11.85;52.63;98067.38;5003195;28;20201;-71
2021/05/25 09:58:24;;;;;;;1.67;1.57;;;;;;;12.05;54.43;98072.31;5002672;28;20205;-73
2021/05/25 10:00:52;;;;;;;1.10;0.80;;;;;;;11.91;54.41;98073.81;4999184;28;20394;-73
2021/05/25 10:03:21;;;;;;;1.10;1.00;;;;;;;12.19;55.12;98062.78;5000194;28;20232;-73
2021/05/25 10:05:50;;;;;;;3.70;3.43;;;;;;;12.32;54.00;98071.06;5003098;28;20220;-73
2021/05/25 10:08:21;;;;;;;1.03;0.93;;;;;;;12.51;53.59;98077.78;5002785;28;20216;-73
2021/05/25 10:10:49;;;;;;;1.00;1.00;;;;;;;12.96;51.45;98085.13;4999125;28;20214;-72
2021/05/25 10:13:17;;;;;;;2.80;2.60;;;;;;;12.31;50.84;98085.31;4997059;28;20221;-72
2021/05/25 10:15:46;;;;;;;1.77;0.90;;;;;;;12.23;53.78;98099.47;5002254;28;20209;-72
2021/05/25 10:18:32;;;;;;;0.53;0.53;;;;;;;10.47;65.96;98098.00;5003270;28;20288;-70
2021/05/25 10:21:03;;;;;;;2.70;2.00;;;;;;;10.05;73.62;98096.97;4999379;28;20704;-73
2021/05/25 10:23:33;;;;;;;1.50;1.40;;;;;;;9.99;73.07;98101.91;5000573;28;20609;-73
2021/05/25 10:26:07;;;;;;;1.70;1.60;;;;;;;10.28;72.25;98097.25;5000864;28;20240;-73
2021/05/25 10:28:35;;;;;;;2.70;1.40;;;;;;;10.31;70.02;98126.06;4999432;28;20220;-72
2021/05/25 10:31:03;;;;;;;1.97;1.87;;;;;;;9.70;73.32;98161.28;5002615;28;20204;-72
2021/05/25 10:33:31;;;;;;;4.20;3.00;;;;;;;7.82;92.62;98144.88;5002348;28;20255;-74
2021/05/25 10:36:02;;;;;;;3.13;2.83;;;;;;;7.15;97.63;98105.28;5003356;28;20216;-73
2021/05/25 10:38:31;;;;;;;5.37;4.87;;;;;;;7.28;100.00;98122.59;5001982;28;20208;-73
2021/05/25 10:40:59;;;;;;;1.73;1.63;;;;;;;7.87;100.00;98107.47;4999364;28;20220;-73
2021/05/25 10:43:44;;;;;;;1.20;1.20;;;;;;;8.64;100.00;98099.38;4998444;28;20322;-73
2021/05/25 10:46:30;;;;;;;1.40;0.93;;;;;;;9.58;96.77;98092.88;5001244;28;20229;-71
2021/05/25 10:49:16;;;;;;;1.07;0.97;;;;;;;10.04;91.60;98093.50;5000974;28;20225;-72
2021/05/25 10:52:16;;;;;;;0.50;0.50;;;;;;;9.79;89.65;98103.97;5000340;28;20220;-72
2021/05/25 10:55:00;;;;;;;2.43;2.10;;;;;;;9.80;95.12;98097.69;5000567;28;20208;-73
2021/05/25 10:57:50;;;;;;;3.20;2.83;;;;;;;8.90;90.83;98130.38;5000339;28;20207;-73
2021/05/25 11:00:21;;;;;;;0.97;0.93;;;;;;;8.30;93.89;98121.09;4998449;28;20212;-73
2021/05/25 11:02:53;;;;;;;3.30;3.00;;;;;;;8.40;98.49;98135.06;5001700;28;20791;-73
2021/05/25 11:05:56;;;;;;;3.27;2.97;;;;;;;8.76;98.18;98115.84;4999207;28;20303;-74
2021/05/25 11:08:38;;;;;;;1.73;1.63;;;;;;;9.03;92.75;98105.38;4998761;28;20212;-74
2021/05/25 11:11:16;;;;;;;3.53;2.30;;;;;;;8.96;89.62;98110.41;5001378;28;20212;-73
2021/05/25 11:13:52;;;;;;;2.97;2.77;;;;;;;9.41;89.49;98111.31;4996027;28;20283;-73
2021/05/25 11:16:35;;;;;;;0.60;0.60;;;;;;;9.39;88.33;98123.84;4998585;28;20215;-74
2021/05/25 11:19:37;;;;;;;0.97;0.97;;;;;;;9.25;84.82;98135.81;4998428;28;20611;-73
2021/05/25 11:22:18;;;;;;;1.30;1.30;;;;;;;9.67;76.11;98116.63;4996694;28;20216;-73
2021/05/25 11:24:58;;;;;;;2.70;1.00;;;;;;;10.44;71.55;98117.69;4998399;28;20209;-73
2021/05/25 11:27:44;;;;;;;1.63;0.70;;;;;;;10.46;69.71;98106.94;5000065;28;20229;-73
2021/05/25 11:30:24;;;;;;;1.00;1.00;;;;;;;10.81;72.05;98118.31;5001886;28;20600;-73
2021/05/25 11:32:53;;;;;;;2.53;1.83;;;;;;;11.18;70.57;98101.13;5000482;28;20228;-72
2021/05/25 11:35:22;;;;;;;3.83;2.17;;;;;;;11.36;70.37;98113.38;5000460;28;20219;-72
2021/05/25 11:37:51;;;;;;;4.00;2.37;;;;;;;11.69;63.33;98113.38;5000105;28;20441;-72
2021/05/25 11:40:21;;;;;;;2.43;1.87;;;;;;;11.84;64.71;98111.66;5001396;28;20200;-70
2021/05/25 11:42:50;;;;;;;3.30;1.80;;;;;;;11.82;61.00;98108.34;4996174;28;20228;-72
2021/05/25 11:45:21;;;;;;;3.27;1.90;;;;;;;12.07;57.11;98105.69;4999529;28;20205;-71
2021/05/25 11:47:54;;;;;;;6.13;2.80;;;;;;;12.58;56.73;98123.91;4994295;28;20224;-71
2021/05/25 11:50:21;;;;;;;16.67;8.03;;;;;;;12.19;57.07;98118.59;4994747;28;20206;-72
2021/05/25 11:53:04;;;;;;;15.17;12.97;;;;;;;12.32;53.65;98144.63;5002047;28;20325;-72